Time;durP1;ratioP1;P1;durP2;ratioP2;P2;SDS_P1;SDS_P2;PMS_P1;PMS_P2;Temp;Humidity;BMP_temperature;BMP_pressure;BME280_temperature;BME280_humidity;BME280_pressure;Samples;Min_cycle;Max_cycle;Signal;HPM_P1;HPM_P2
2023/08/13 00:00:42;;;;;;;1785.32;999.90;;;26.80;99.90;;;;;;5013164;28;20032;-71
2023/08/13 00:03:09;;;;;;;1696.13;999.90;;;26.80;99.90;;;;;;4995555;28;20034;-71
2023/08/13 00:05:35;;;;;;;1588.28;999.90;;;26.80;99.90;;;;;;5013220;28;20076;-71
2023/08/13 00:08:02;;;;;;;1561.20;999.90;;;26.80;99.90;;;;;;5016788;28;20110;-70
2023/08/13 00:10:28;;;;;;;1553.55;999.90;;;26.90;99.90;;;;;;5016983;28;20037;-67
2023/08/13 00:12:55;;;;;;;1805.20;999.90;;;26.80;99.90;;;;;;5017039;28;20018;-66
2023/08/13 00:15:21;;;;;;;1708.35;999.90;;;26.80;99.90;;;;;;5016948;28;20101;-69
2023/08/13 00:17:48;;;;;;;1999.90;999.90;;;26.90;99.90;;;;;;5016686;28;20045;-68
2023/08/13 00:20:15;;;;;;;1999.90;999.90;;;26.90;99.90;;;;;;5016895;28;20029;-70
2023/08/13 00:22:41;;;;;;;1747.07;999.90;;;27.00;99.90;;;;;;4999093;28;20434;-68
2023/08/13 00:25:08;;;;;;;1648.00;999.90;;;27.00;99.90;;;;;;5016789;28;20076;-69
2023/08/13 00:27:35;;;;;;;1675.13;999.90;;;27.10;99.90;;;;;;5016936;28;20026;-68
2023/08/13 00:30:01;;;;;;;1537.97;999.90;;;27.10;99.90;;;;;;5016808;28;20057;-68
2023/08/13 00:32:28;;;;;;;1541.68;999.90;;;27.20;99.90;;;;;;5016546;28;20076;-68
2023/08/13 00:34:54;;;;;;;749.05;673.65;;;27.20;99.90;;;;;;5016713;28;20092;-71
2023/08/13 00:37:21;;;;;;;1487.47;999.90;;;27.20;99.90;;;;;;5016369;28;20109;-71
2023/08/13 00:39:47;;;;;;;1454.88;999.90;;;27.20;99.90;;;;;;5016374;28;20018;-67
2023/08/13 00:42:14;;;;;;;1520.05;999.90;;;27.20;99.90;;;;;;5016987;28;20424;-65
2023/08/13 00:44:40;;;;;;;1476.05;999.90;;;27.30;99.90;;;;;;5016512;28;20021;-68
2023/08/13 00:47:08;;;;;;;1517.30;999.90;;;27.30;99.90;;;;;;5016318;28;20014;-66
2023/08/13 00:49:35;;;;;;;1540.50;999.90;;;27.30;99.90;;;;;;5016523;28;20384;-66
2023/08/13 00:52:01;;;;;;;1713.47;999.90;;;27.40;99.90;;;;;;5016268;28;20029;-67
2023/08/13 00:54:29;;;;;;;1689.85;999.90;;;27.40;99.90;;;;;;5016145;28;20109;-66
2023/08/13 00:56:56;;;;;;;1586.45;999.90;;;27.40;99.90;;;;;;5016222;28;20476;-66
2023/08/13 00:59:24;;;;;;;1491.47;999.90;;;27.50;99.90;;;;;;4998371;28;20431;-66
2023/08/13 01:01:50;;;;;;;1456.57;999.90;;;27.50;99.90;;;;;;5016092;28;20029;-66
2023/08/13 01:04:17;;;;;;;1499.55;999.90;;;27.50;99.90;;;;;;5016104;28;20022;-66
2023/08/13 01:06:50;;;;;;;1431.32;999.90;;;27.50;99.90;;;;;;5016158;28;20022;-64
2023/08/13 01:09:29;;;;;;;1424.93;999.90;;;27.60;99.90;;;;;;5015819;28;20413;-65
2023/08/13 01:11:58;;;;;;;1484.75;999.90;;;27.60;99.90;;;;;;5015763;28;20030;-66
2023/08/13 01:14:35;;;;;;;1522.93;999.90;;;27.60;99.90;;;;;;5021223;28;20179;-66
2023/08/13 01:17:04;;;;;;;1490.93;999.90;;;27.70;99.90;;;;;;5035482;28;20053;-65
2023/08/13 01:19:30;;;;;;;1487.47;999.90;;;27.80;99.90;;;;;;5034736;28;20140;-66
2023/08/13 01:21:57;;;;;;;1485.13;999.90;;;27.80;99.90;;;;;;5035548;28;20030;-65
2023/08/13 01:24:24;;;;;;;1505.82;999.90;;;27.80;99.90;;;;;;5035492;28;20538;-66
2023/08/13 01:27:18;;;;;;;1481.90;999.90;;;27.90;99.90;;;;;;5035383;28;20444;-66
2023/08/13 01:29:49;;;;;;;1530.80;999.90;;;28.00;99.90;;;;;;5035536;28;20385;-66
2023/08/13 01:32:20;;;;;;;1524.65;999.90;;;28.00;99.90;;;;;;5035054;28;20021;-68
2023/08/13 01:34:50;;;;;;;1502.20;999.90;;;28.00;99.90;;;;;;5035115;28;20033;-68
2023/08/13 01:37:19;;;;;;;1540.03;999.90;;;28.10;99.90;;;;;;5035067;28;20037;-66
2023/08/13 01:39:45;;;;;;;1520.53;999.90;;;28.10;99.90;;;;;;5035044;28;20387;-65
2023/08/13 01:42:12;;;;;;;1549.30;999.90;;;28.20;99.90;;;;;;5035199;28;20024;-65
2023/08/13 01:44:39;;;;;;;1546.22;999.90;;;28.30;99.90;;;;;;5035106;28;20545;-65
2023/08/13 01:47:05;;;;;;;1548.40;999.90;;;28.40;99.90;;;;;;5034950;28;20037;-67
2023/08/13 01:49:33;;;;;;;1536.05;999.90;;;28.40;99.90;;;;;;5035173;28;20021;-65
2023/08/13 01:51:59;;;;;;;1538.53;999.90;;;28.50;99.90;;;;;;5034524;28;20036;-64
2023/08/13 01:54:26;;;;;;;1516.60;999.90;;;28.60;99.90;;;;;;5034823;28;20018;-71
2023/08/13 01:56:52;;;;;;;1529.07;999.90;;;28.60;99.90;;;;;;5034842;28;20484;-65
2023/08/13 01:59:19;;;;;;;1536.47;999.90;;;28.70;99.90;;;;;;5034803;28;20026;-64
2023/08/13 02:01:45;;;;;;;1492.35;999.90;;;28.70;99.90;;;;;;5034609;28;20446;-66
2023/08/13 02:04:12;;;;;;;1373.07;999.90;;;28.80;99.90;;;;;;5034106;28;20108;-66
2023/08/13 02:06:38;;;;;;;1370.15;999.90;;;28.80;99.90;;;;;;5034558;28;20072;-66
2023/08/13 02:09:05;;;;;;;1490.82;999.90;;;28.90;99.90;;;;;;5034850;28;20030;-66
2023/08/13 02:11:32;;;;;;;1538.68;999.90;;;29.00;99.90;;;;;;5034671;28;20034;-67
2023/08/13 02:13:58;;;;;;;1550.35;999.90;;;29.00;99.90;;;;;;5034541;28;20559;-66
2023/08/13 02:16:25;;;;;;;1550.70;999.90;;;29.10;99.90;;;;;;5033999;28;20042;-66
2023/08/13 02:18:51;;;;;;;1506.45;999.90;;;29.10;99.90;;;;;;5034282;28;20040;-67
2023/08/13 02:21:20;;;;;;;1524.03;999.90;;;29.00;99.90;;;;;;5034590;28;20451;-66
2023/08/13 02:23:46;;;;;;;1524.38;999.90;;;29.10;99.90;;;;;;5034221;28;20031;-68
2023/08/13 02:26:14;;;;;;;1527.25;999.90;;;29.10;99.90;;;;;;5034410;28;20018;-68
2023/08/13 02:28:43;;;;;;;1551.80;999.90;;;29.10;99.90;;;;;;5034050;28;20399;-67
2023/08/13 02:31:10;;;;;;;1555.03;999.90;;;29.10;99.90;;;;;;5034063;28;20479;-68
2023/08/13 02:33:37;;;;;;;1563.40;999.90;;;29.10;99.90;;;;;;5034368;28;20026;-70
2023/08/13 02:36:03;;;;;;;1560.47;999.90;;;29.10;99.90;;;;;;5033184;28;20025;-68
2023/08/13 02:38:30;;;;;;;1552.63;999.90;;;29.10;99.90;;;;;;5033831;28;20028;-71
2023/08/13 02:40:57;;;;;;;1536.22;999.90;;;29.20;99.90;;;;;;5034031;28;20083;-68
2023/08/13 02:43:29;;;;;;;1383.97;999.90;;;29.30;99.90;;;;;;5034102;28;20380;-68
2023/08/13 02:45:56;;;;;;;1011.13;911.33;;;29.30;99.90;;;;;;5033786;28;20025;-68
2023/08/13 02:48:23;;;;;;;968.00;871.63;;;29.30;99.90;;;;;;5034111;28;20482;-67
2023/08/13 02:50:49;;;;;;;984.28;888.15;;;29.30;99.90;;;;;;5033867;28;20017;-66
2023/08/13 02:53:16;;;;;;;967.80;873.20;;;29.30;99.90;;;;;;5033870;28;20076;-70
2023/08/13 02:55:42;;;;;;;1138.45;999.90;;;29.30;99.90;;;;;;5033903;28;20616;-68
2023/08/13 02:58:09;;;;;;;1024.13;922.85;;;29.40;99.90;;;;;;5033848;28;20503;-69
2023/08/13 03:00:35;;;;;;;1430.38;999.90;;;29.40;99.90;;;;;;5033811;28;20488;-69
2023/08/13 03:03:02;;;;;;;1535.88;999.90;;;29.50;99.90;;;;;;5033816;28;20116;-68
2023/08/13 03:05:30;;;;;;;1518.68;999.90;;;29.60;99.90;;;;;;5033818;28;20022;-67
2023/08/13 03:07:57;;;;;;;1501.53;999.90;;;29.70;99.90;;;;;;5030985;28;20040;-67
2023/08/13 03:10:23;;;;;;;1512.45;999.90;;;29.80;99.90;;;;;;5030658;28;20079;-69
2023/08/13 03:12:50;;;;;;;1492.28;999.90;;;29.80;99.90;;;;;;5025898;28;20434;-69
2023/08/13 03:15:16;;;;;;;1481.82;999.90;;;29.90;99.90;;;;;;5021095;28;20038;-68
2023/08/13 03:17:43;;;;;;;1546.50;999.90;;;29.80;99.90;;;;;;5026788;28;20045;-68
2023/08/13 03:20:10;;;;;;;1566.03;999.90;;;29.90;99.90;;;;;;5024457;28;20084;-67
2023/08/13 03:22:37;;;;;;;1546.32;999.90;;;30.00;99.90;;;;;;5021254;28;20046;-67
2023/08/13 03:25:04;;;;;;;1567.63;999.90;;;30.10;99.90;;;;;;5025159;28;20500;-66
2023/08/13 03:27:30;;;;;;;1562.88;999.90;;;30.10;99.90;;;;;;5028031;28;20029;-66
2023/08/13 03:29:57;;;;;;;1480.45;999.90;;;30.10;99.90;;;;;;5028075;28;20026;-67
2023/08/13 03:32:23;;;;;;;1560.15;999.90;;;30.20;99.90;;;;;;5024693;28;20022;-68
2023/08/13 03:34:50;;;;;;;1558.78;999.90;;;30.30;99.90;;;;;;5032579;28;20124;-67
2023/08/13 03:37:16;;;;;;;1557.45;999.90;;;30.30;99.90;;;;;;5025087;28;20357;-66
2023/08/13 03:39:43;;;;;;;1550.38;999.90;;;30.30;99.90;;;;;;5014119;28;20026;-67
2023/08/13 03:42:10;;;;;;;1509.72;999.90;;;30.30;99.90;;;;;;5024772;28;20018;-67
2023/08/13 03:44:36;;;;;;;1510.32;999.90;;;30.40;99.90;;;;;;5024427;28;20431;-67
2023/08/13 03:47:03;;;;;;;1467.93;999.90;;;30.40;99.90;;;;;;5018213;28;20022;-67
2023/08/13 03:49:29;;;;;;;1510.35;999.90;;;30.40;99.90;;;;;;5033632;28;20408;-66
2023/08/13 03:51:56;;;;;;;1537.82;999.90;;;30.50;99.90;;;;;;5025948;28;20141;-68
2023/08/13 03:54:23;;;;;;;1544.32;999.90;;;30.50;99.90;;;;;;5026018;28;20021;-65
2023/08/13 03:56:49;;;;;;;1555.40;999.90;;;30.30;99.90;;;;;;5026925;28;20029;-67
2023/08/13 03:59:16;;;;;;;1582.15;999.90;;;30.30;99.90;;;;;;5022778;28;20507;-66
2023/08/13 04:01:42;;;;;;;1579.50;999.90;;;30.40;99.90;;;;;;5014074;28;20472;-66
2023/08/13 04:04:09;;;;;;;1561.63;999.90;;;30.50;99.90;;;;;;5031976;28;20030;-67
2023/08/13 04:06:35;;;;;;;1588.30;999.90;;;30.60;99.90;;;;;;5033431;28;20404;-67
2023/08/13 04:09:02;;;;;;;1550.97;999.90;;;30.60;99.90;;;;;;5033130;28;20088;-70
2023/08/13 04:11:29;;;;;;;1556.90;999.90;;;30.60;99.90;;;;;;5031393;28;20041;-67
2023/08/13 04:13:55;;;;;;;1554.53;999.90;;;30.70;99.90;;;;;;5022677;28;20104;-65
2023/08/13 04:16:22;;;;;;;1563.90;999.90;;;30.70;99.90;;;;;;5013804;28;20401;-68
2023/08/13 04:18:50;;;;;;;1573.65;999.90;;;30.70;99.90;;;;;;5013564;28;20030;-67
2023/08/13 04:21:17;;;;;;;1555.10;999.90;;;30.70;99.90;;;;;;5024407;28;20032;-65
2023/08/13 04:23:43;;;;;;;1568.70;999.90;;;30.80;99.90;;;;;;5030308;28;20025;-66
2023/08/13 04:26:10;;;;;;;1563.75;999.90;;;30.90;99.90;;;;;;5023128;28;20097;-64
2023/08/13 04:28:36;;;;;;;1564.25;999.90;;;31.00;99.90;;;;;;5013582;28;20022;-67
2023/08/13 04:31:03;;;;;;;1582.00;999.90;;;30.90;99.90;;;;;;5018848;28;20104;-65
2023/08/13 04:33:30;;;;;;;1575.75;999.90;;;30.90;99.90;;;;;;5023806;28;20328;-66
2023/08/13 04:35:56;;;;;;;1571.25;999.90;;;31.00;99.90;;;;;;5019871;28;20041;-66
2023/08/13 04:38:23;;;;;;;1550.45;999.90;;;31.00;99.90;;;;;;5026349;28;20026;-65
2023/08/13 04:40:50;;;;;;;1555.32;999.90;;;31.00;99.90;;;;;;5021677;28;20025;-65
2023/08/13 04:43:17;;;;;;;1547.35;999.90;;;31.10;99.90;;;;;;5023195;28;20107;-65
2023/08/13 04:45:46;;;;;;;1535.88;999.90;;;31.20;99.90;;;;;;5023891;28;20014;-67
2023/08/13 04:48:18;;;;;;;1550.03;999.90;;;31.30;99.90;;;;;;5022706;28;20563;-66
2023/08/13 04:50:45;;;;;;;1546.30;999.90;;;31.40;99.90;;;;;;5024013;28;20041;-65
2023/08/13 04:53:11;;;;;;;1550.55;999.90;;;31.40;99.90;;;;;;5020871;28;20022;-68
2023/08/13 04:55:38;;;;;;;1544.32;999.90;;;31.40;99.90;;;;;;5024834;28;20033;-67
2023/08/13 04:58:05;;;;;;;1540.20;999.90;;;31.50;99.90;;;;;;5028587;28;20021;-65
2023/08/13 05:00:31;;;;;;;1563.85;999.90;;;31.50;99.90;;;;;;5034755;28;20472;-67
2023/08/13 05:02:58;;;;;;;1572.07;999.90;;;31.50;99.90;;;;;;5027283;28;20029;-66
2023/08/13 05:05:24;;;;;;;1568.30;999.90;;;31.60;99.90;;;;;;5035239;28;20022;-66
2023/08/13 05:07:51;;;;;;;1577.30;999.90;;;31.70;99.90;;;;;;5035272;28;20081;-67
2023/08/13 05:10:17;;;;;;;1574.45;999.90;;;31.80;99.90;;;;;;5034968;28;20563;-69
2023/08/13 05:12:44;;;;;;;1578.65;999.90;;;31.90;99.90;;;;;;5035113;28;20029;-69
2023/08/13 05:15:11;;;;;;;1547.50;999.90;;;31.90;99.90;;;;;;5034800;28;20033;-68
2023/08/13 05:17:37;;;;;;;1561.95;999.90;;;32.00;99.90;;;;;;5030814;28;20484;-66
2023/08/13 05:20:05;;;;;;;1555.00;999.90;;;31.90;99.90;;;;;;5022083;28;20557;-67
2023/08/13 05:22:32;;;;;;;1557.63;999.90;;;32.00;99.90;;;;;;5017880;28;20033;-66
2023/08/13 05:24:59;;;;;;;1563.25;999.90;;;32.00;99.90;;;;;;5017795;28;20030;-68
2023/08/13 05:27:25;;;;;;;1565.30;999.90;;;32.00;99.90;;;;;;5020464;28;20037;-66
2023/08/13 05:29:52;;;;;;;1556.22;999.90;;;32.10;99.90;;;;;;5015124;28;20577;-66
2023/08/13 05:32:18;;;;;;;1562.35;999.90;;;32.20;99.90;;;;;;5027119;28;20021;-68
2023/08/13 05:34:45;;;;;;;1550.85;999.90;;;32.20;99.90;;;;;;5025862;28;20018;-69
2023/08/13 05:37:11;;;;;;;1445.35;999.90;;;32.30;99.90;;;;;;5023696;28;20013;-71
2023/08/13 05:39:38;;;;;;;1466.85;999.90;;;32.40;99.90;;;;;;5023906;28;20101;-66
2023/08/13 05:42:05;;;;;;;1530.30;999.90;;;32.50;99.90;;;;;;5024111;28;20026;-65
2023/08/13 05:44:31;;;;;;;1502.22;999.90;;;32.50;99.90;;;;;;5024624;28;20091;-67
2023/08/13 05:46:58;;;;;;;1442.57;999.90;;;32.50;99.90;;;;;;5024182;28;20017;-67
2023/08/13 05:49:24;;;;;;;1431.40;999.90;;;32.40;99.90;;;;;;5024772;28;20088;-66
2023/08/13 05:51:51;;;;;;;1454.15;999.90;;;32.50;99.90;;;;;;5022167;28;20411;-64
2023/08/13 05:54:18;;;;;;;1451.57;999.90;;;32.50;99.90;;;;;;5029210;28;20498;-66
2023/08/13 05:56:44;;;;;;;1463.18;999.90;;;32.60;99.90;;;;;;5025962;28;21062;-64
2023/08/13 05:59:11;;;;;;;1458.30;999.90;;;32.60;99.90;;;;;;5024089;28;20022;-65
2023/08/13 06:01:38;;;;;;;1466.30;999.90;;;32.60;99.90;;;;;;5024460;28;20021;-69
2023/08/13 06:04:05;;;;;;;1468.75;999.90;;;32.60;99.90;;;;;;5025538;28;20038;-67
2023/08/13 06:06:31;;;;;;;1457.22;999.90;;;32.70;99.90;;;;;;5023934;28;20388;-67
2023/08/13 06:08:58;;;;;;;1491.25;999.90;;;32.70;99.90;;;;;;5024599;28;20014;-67
2023/08/13 06:11:24;;;;;;;1513.57;999.90;;;32.60;99.90;;;;;;5026212;28;20022;-65
2023/08/13 06:13:51;;;;;;;1475.90;999.90;;;32.60;99.90;;;;;;5024354;28;20025;-64
2023/08/13 06:16:18;;;;;;;1475.15;999.90;;;32.70;99.90;;;;;;5024556;28;20045;-64
2023/08/13 06:18:44;;;;;;;1473.20;999.90;;;32.70;99.90;;;;;;5025329;28;20368;-64
2023/08/13 06:21:11;;;;;;;1493.05;999.90;;;32.70;99.90;;;;;;5023650;28;20384;-64
2023/08/13 06:23:38;;;;;;;1473.53;999.90;;;32.70;99.90;;;;;;5029503;28;20391;-63
2023/08/13 06:26:06;;;;;;;1488.22;999.90;;;32.60;99.90;;;;;;5027972;28;20026;-64
2023/08/13 06:28:33;;;;;;;1515.75;999.90;;;32.60;99.90;;;;;;5023048;28;20028;-64
2023/08/13 06:31:01;;;;;;;1533.78;999.90;;;32.60;99.90;;;;;;5026402;28;20072;-65
2023/08/13 06:33:28;;;;;;;1521.28;999.90;;;32.60;99.90;;;;;;5025667;28;20046;-65
2023/08/13 06:35:54;;;;;;;1557.72;999.90;;;32.60;99.90;;;;;;5027027;28;20037;-64
2023/08/13 06:38:22;;;;;;;1186.15;990.70;;;32.70;99.90;;;;;;5026352;28;20029;-65
2023/08/13 06:40:49;;;;;;;700.22;630.28;;;32.70;99.90;;;;;;5016962;28;20049;-64
2023/08/13 06:43:16;;;;;;;843.63;761.25;;;32.70;99.90;;;;;;5017135;28;20018;-65
2023/08/13 06:45:42;;;;;;;989.60;884.90;;;32.80;99.90;;;;;;5030563;28;20471;-68
2023/08/13 06:48:09;;;;;;;791.55;713.83;;;32.80;99.90;;;;;;5024789;28;20045;-68
2023/08/13 06:50:36;;;;;;;593.17;532.13;;;32.90;99.90;;;;;;5026803;28;20032;-67
2023/08/13 06:53:03;;;;;;;760.22;684.53;;;32.90;99.90;;;;;;5030744;28;20060;-67
2023/08/13 06:55:30;;;;;;;1603.93;999.90;;;33.00;99.90;;;;;;5015812;28;20546;-66
2023/08/13 06:57:56;;;;;;;1605.82;999.90;;;33.00;99.90;;;;;;5014269;28;20034;-66
2023/08/13 07:00:23;;;;;;;1525.60;999.90;;;33.10;99.90;;;;;;5014027;28;20050;-65
2023/08/13 07:02:50;;;;;;;1537.25;999.90;;;33.20;99.90;;;;;;5013962;28;20022;-66
2023/08/13 07:05:18;;;;;;;1501.15;999.90;;;33.30;99.90;;;;;;5015173;28;20408;-66
2023/08/13 07:07:45;;;;;;;1443.15;999.90;;;33.40;99.90;;;;;;5026244;28;20037;-68
2023/08/13 07:10:12;;;;;;;1490.40;999.90;;;33.30;99.90;;;;;;5029661;28;20471;-68
2023/08/13 07:12:39;;;;;;;1457.53;999.90;;;33.30;99.90;;;;;;5027613;28;20041;-67
2023/08/13 07:15:05;;;;;;;1461.47;999.90;;;33.20;99.90;;;;;;5032390;28;20025;-67
2023/08/13 07:17:32;;;;;;;1464.70;999.90;;;33.20;99.90;;;;;;5031884;28;20491;-67
2023/08/13 07:19:59;;;;;;;1452.10;999.90;;;33.30;99.90;;;;;;5033489;28;20025;-67
2023/08/13 07:22:26;;;;;;;1462.53;999.90;;;33.20;99.90;;;;;;5033698;28;20112;-67
2023/08/13 07:24:53;;;;;;;1512.70;999.90;;;33.20;99.90;;;;;;5032282;28;20104;-67
2023/08/13 07:27:19;;;;;;;1527.60;999.90;;;33.10;99.90;;;;;;5033400;28;20022;-66
2023/08/13 07:29:46;;;;;;;1279.82;999.90;;;33.10;99.90;;;;;;5033205;28;20068;-66
2023/08/13 07:32:12;;;;;;;1518.78;999.90;;;33.10;99.90;;;;;;5033410;28;20531;-66
2023/08/13 07:34:39;;;;;;;1606.10;999.90;;;33.30;99.90;;;;;;5033176;28;20447;-66
2023/08/13 07:37:06;;;;;;;1602.53;999.90;;;33.40;99.90;;;;;;5033160;28;20036;-66
2023/08/13 07:39:32;;;;;;;1611.93;999.90;;;33.50;99.90;;;;;;5033164;28;20060;-66
2023/08/13 07:41:59;;;;;;;1620.88;999.90;;;33.60;99.50;;;;;;5033017;28;20033;-65
2023/08/13 07:44:26;;;;;;;1552.90;999.90;;;33.50;99.00;;;;;;5032998;28;20036;-67
2023/08/13 07:46:54;;;;;;;1512.90;999.90;;;33.60;99.40;;;;;;5032127;28;20024;-65
2023/08/13 07:49:21;;;;;;;1524.47;999.90;;;33.80;99.60;;;;;;5032980;28;20034;-66
2023/08/13 07:51:47;;;;;;;1507.90;999.90;;;33.70;98.80;;;;;;5033094;28;20017;-65
2023/08/13 07:54:14;;;;;;;1430.85;999.90;;;33.60;98.50;;;;;;5033055;28;20018;-66
2023/08/13 07:56:41;;;;;;;1405.75;999.90;;;33.40;98.70;;;;;;5033033;28;20041;-68
2023/08/13 07:59:07;;;;;;;1433.45;999.90;;;33.40;99.10;;;;;;5032988;28;20029;-66
2023/08/13 08:01:34;;;;;;;1379.45;999.90;;;33.40;99.00;;;;;;5032917;28;20100;-66
2023/08/13 08:04:00;;;;;;;1453.05;999.90;;;33.40;99.50;;;;;;5033214;28;20021;-64
2023/08/13 08:06:27;;;;;;;1451.53;999.90;;;33.30;99.10;;;;;;5032985;28;20017;-67
2023/08/13 08:08:53;;;;;;;1369.07;999.90;;;33.30;99.70;;;;;;5032813;28;20141;-65
2023/08/13 08:11:20;;;;;;;1464.82;999.90;;;33.20;99.30;;;;;;5032719;28;20538;-65
2023/08/13 08:13:46;;;;;;;1445.68;999.90;;;33.20;99.60;;;;;;5032914;28;20025;-65
2023/08/13 08:16:13;;;;;;;1461.43;999.90;;;33.20;99.70;;;;;;5032691;28;20033;-67
2023/08/13 08:18:39;;;;;;;1478.13;999.90;;;33.20;99.90;;;;;;5032638;28;20018;-65
2023/08/13 08:21:06;;;;;;;1491.07;999.90;;;33.10;99.60;;;;;;5032705;28;20571;-66
2023/08/13 08:23:33;;;;;;;1523.90;999.90;;;33.10;99.90;;;;;;5032877;28;20036;-66
2023/08/13 08:26:00;;;;;;;1494.18;999.90;;;33.00;99.90;;;;;;5032512;28;20021;-66
2023/08/13 08:28:26;;;;;;;1507.75;999.90;;;32.90;99.80;;;;;;5035377;28;20506;-66
2023/08/13 08:30:53;;;;;;;1495.03;999.90;;;32.90;99.60;;;;;;5036573;28;20049;-66
2023/08/13 08:33:21;;;;;;;1496.82;999.90;;;32.80;99.50;;;;;;5035467;28;20022;-68
2023/08/13 08:35:47;;;;;;;1470.72;999.90;;;32.80;99.40;;;;;;5036461;28;20537;-66
2023/08/13 08:38:14;;;;;;;1478.70;999.90;;;32.80;98.80;;;;;;5036667;28;20029;-65
2023/08/13 08:40:45;;;;;;;1371.60;999.90;;;32.80;98.40;;;;;;5036204;28;20017;-66
2023/08/13 08:43:13;;;;;;;1432.97;999.90;;;32.70;98.10;;;;;;5036168;28;20117;-66
2023/08/13 08:45:40;;;;;;;1423.20;999.90;;;32.80;98.50;;;;;;5036189;28;20036;-66
2023/08/13 08:48:10;;;;;;;1457.82;999.90;;;32.70;98.50;;;;;;5036119;28;20510;-66
2023/08/13 08:50:37;;;;;;;1442.40;999.90;;;32.70;98.70;;;;;;5036214;28;20030;-66
2023/08/13 08:53:04;;;;;;;1441.38;999.90;;;32.70;98.60;;;;;;5035954;28;20029;-66
2023/08/13 08:55:33;;;;;;;1443.03;999.90;;;32.70;99.00;;;;;;5035959;28;20026;-65
2023/08/13 08:57:59;;;;;;;1400.18;999.90;;;32.70;98.90;;;;;;5035947;28;20030;-66
2023/08/13 09:00:26;;;;;;;1496.70;999.90;;;32.70;98.80;;;;;;5035828;28;20013;-65
2023/08/13 09:02:52;;;;;;;1492.32;999.90;;;32.60;98.70;;;;;;5035833;28;20052;-65
2023/08/13 09:05:20;;;;;;;1470.47;999.90;;;32.60;98.90;;;;;;5035930;28;20077;-65
2023/08/13 09:07:47;;;;;;;1467.07;999.90;;;32.60;99.10;;;;;;5035773;28;20025;-66
2023/08/13 09:10:13;;;;;;;1567.57;999.90;;;32.60;99.30;;;;;;5035722;28;20017;-65
2023/08/13 09:12:42;;;;;;;1572.43;999.90;;;32.60;99.80;;;;;;5035812;28;20024;-65
2023/08/13 09:15:10;;;;;;;1572.22;999.90;;;32.60;99.90;;;;;;5035689;28;20025;-66
2023/08/13 09:17:39;;;;;;;1570.72;999.90;;;32.50;99.90;;;;;;5035119;28;20188;-66
2023/08/13 09:20:10;;;;;;;1576.53;999.90;;;32.40;99.90;;;;;;5035682;28;20017;-66
2023/08/13 09:22:36;;;;;;;1556.57;999.90;;;32.40;99.90;;;;;;5035715;28;20497;-66
2023/08/13 09:25:03;;;;;;;1548.60;999.90;;;32.40;99.90;;;;;;5035636;28;20032;-65
2023/08/13 09:27:31;;;;;;;1494.07;999.90;;;32.30;99.90;;;;;;5032250;28;20068;-65
2023/08/13 09:29:58;;;;;;;1517.97;999.90;;;32.30;99.90;;;;;;5024446;28;20080;-65
2023/08/13 09:32:26;;;;;;;1484.18;999.90;;;32.30;99.90;;;;;;5015502;28;20069;-66
2023/08/13 09:34:53;;;;;;;1525.75;999.90;;;32.40;99.90;;;;;;5015725;28;20480;-65
2023/08/13 09:37:19;;;;;;;1519.28;999.90;;;32.30;99.90;;;;;;5015468;28;20037;-65
2023/08/13 09:39:46;;;;;;;1616.28;999.90;;;32.30;99.90;;;;;;5014552;28;20029;-66
2023/08/13 09:42:13;;;;;;;1608.18;999.90;;;32.20;99.90;;;;;;5015493;28;20114;-65
2023/08/13 09:44:40;;;;;;;1535.18;999.90;;;32.30;99.90;;;;;;5015430;28;20025;-68
2023/08/13 09:47:09;;;;;;;1646.63;999.90;;;32.20;99.90;;;;;;5015264;28;20021;-66
2023/08/13 09:49:36;;;;;;;1609.70;999.90;;;32.20;99.90;;;;;;5015342;28;20032;-66
2023/08/13 09:52:08;;;;;;;1562.38;999.90;;;32.20;99.90;;;;;;5015311;28;20021;-65
2023/08/13 09:54:54;;;;;;;1583.50;999.90;;;32.20;99.90;;;;;;5015100;28;20092;-65
2023/08/13 09:57:22;;;;;;;1563.78;999.90;;;32.10;99.90;;;;;;5015086;28;20022;-65
2023/08/13 09:59:50;;;;;;;1546.55;999.90;;;32.10;99.90;;;;;;5014919;28;20073;-65
2023/08/13 10:02:18;;;;;;;1528.75;999.90;;;32.10;99.90;;;;;;5014848;28;20026;-65
2023/08/13 10:04:46;;;;;;;1508.60;999.90;;;32.00;99.90;;;;;;5014610;28;20026;-66
2023/08/13 10:07:13;;;;;;;1552.90;999.90;;;32.00;99.90;;;;;;5015033;28;20140;-67
2023/08/13 10:09:41;;;;;;;1544.50;999.90;;;31.90;99.90;;;;;;5014897;28;20022;-66
2023/08/13 10:12:09;;;;;;;1523.45;999.90;;;31.90;99.90;;;;;;5014874;28;20104;-66
2023/08/13 10:14:36;;;;;;;1493.35;999.90;;;31.90;99.90;;;;;;5014822;28;20480;-66
2023/08/13 10:17:05;;;;;;;1528.05;999.90;;;31.90;99.90;;;;;;5014665;28;20049;-66
2023/08/13 10:19:47;;;;;;;1522.25;999.90;;;31.90;99.90;;;;;;5014432;28;20030;-65
2023/08/13 10:22:14;;;;;;;1518.25;999.90;;;31.80;99.90;;;;;;5018388;28;20028;-64
2023/08/13 10:24:42;;;;;;;1495.88;999.90;;;31.80;99.90;;;;;;5018231;28;20022;-65
2023/08/13 10:27:12;;;;;;;1489.75;999.90;;;31.70;99.90;;;;;;5024092;28;20104;-66
2023/08/13 10:29:42;;;;;;;1505.88;999.90;;;31.70;99.90;;;;;;5025679;28;20033;-66
2023/08/13 10:32:14;;;;;;;1508.18;999.90;;;31.70;99.90;;;;;;5027698;28;20060;-69
2023/08/13 10:34:51;;;;;;;1534.43;999.90;;;31.60;99.90;;;;;;5021848;28;20555;-67
2023/08/13 10:37:20;;;;;;;1540.68;999.90;;;31.60;99.90;;;;;;5017713;28;20037;-66
2023/08/13 10:40:05;;;;;;;1496.60;999.90;;;;;;;;;;5023309;28;20095;-65
2023/08/13 10:42:34;;;;;;;1490.05;999.90;;;31.50;99.90;;;;;;5024637;28;20026;-65
2023/08/13 10:45:02;;;;;;;1488.90;999.90;;;31.50;99.90;;;;;;5023528;28;20049;-67
2023/08/13 10:47:39;;;;;;;1512.97;999.90;;;31.40;99.90;;;;;;5027037;28;20026;-65
2023/08/13 10:50:07;;;;;;;1477.60;999.90;;;31.40;99.90;;;;;;5023352;28;20064;-64
2023/08/13 10:52:34;;;;;;;1501.32;999.90;;;31.40;99.90;;;;;;5022932;28;20030;-67
2023/08/13 10:55:04;;;;;;;1510.03;999.90;;;31.40;99.90;;;;;;5019793;28;20037;-65
2023/08/13 10:57:31;;;;;;;1502.32;999.90;;;31.40;99.90;;;;;;5029735;28;20018;-67
2023/08/13 10:59:58;;;;;;;1503.05;999.90;;;31.30;99.90;;;;;;5027383;28;20468;-67
2023/08/13 11:02:24;;;;;;;1533.25;999.90;;;31.30;99.90;;;;;;5027213;28;20033;-67
2023/08/13 11:04:52;;;;;;;1517.22;999.90;;;31.30;99.90;;;;;;5025309;28;20057;-67
2023/08/13 11:07:19;;;;;;;1515.60;999.90;;;31.30;99.90;;;;;;5026246;28;20226;-67
2023/08/13 11:09:47;;;;;;;1523.13;999.90;;;31.20;99.90;;;;;;5021028;28;20054;-68
2023/08/13 11:12:13;;;;;;;1469.25;999.90;;;31.20;99.90;;;;;;5025940;28;20108;-67
2023/08/13 11:14:41;;;;;;;1516.75;999.90;;;31.10;99.90;;;;;;5023636;28;20029;-66
2023/08/13 11:17:08;;;;;;;1495.68;999.90;;;31.10;99.90;;;;;;5028729;28;20442;-67
2023/08/13 11:19:35;;;;;;;1477.63;999.90;;;31.10;99.90;;;;;;5026558;28;20030;-71
2023/08/13 11:22:02;;;;;;;1479.45;999.90;;;31.10;99.90;;;;;;5009164;28;20357;-69
2023/08/13 11:24:32;;;;;;;1493.45;999.90;;;31.00;99.90;;;;;;5024156;28;20190;-69
2023/08/13 11:26:59;;;;;;;1495.03;999.90;;;31.10;99.90;;;;;;5025334;28;20427;-67
2023/08/13 11:29:26;;;;;;;1486.40;999.90;;;31.00;99.90;;;;;;5024747;28;20041;-65
2023/08/13 11:31:55;;;;;;;1472.30;999.90;;;31.00;99.90;;;;;;5025116;28;20408;-68
2023/08/13 11:34:21;;;;;;;1493.68;999.90;;;31.00;99.90;;;;;;5030867;28;20064;-66
2023/08/13 11:36:50;;;;;;;1485.60;999.90;;;31.00;99.90;;;;;;5028046;28;20029;-66
2023/08/13 11:39:18;;;;;;;1481.72;999.90;;;31.00;99.90;;;;;;5033091;28;20060;-68
2023/08/13 11:41:46;;;;;;;1505.80;999.90;;;30.90;99.90;;;;;;5033184;28;20445;-68
2023/08/13 11:44:12;;;;;;;1514.72;999.90;;;30.90;99.90;;;;;;5033083;28;20037;-68
2023/08/13 11:46:51;;;;;;;1564.78;999.90;;;30.90;99.90;;;;;;5033257;28;20022;-66
2023/08/13 11:49:18;;;;;;;1609.57;999.90;;;30.90;99.90;;;;;;5033279;28;20423;-67
2023/08/13 11:51:45;;;;;;;1584.93;999.90;;;30.80;99.90;;;;;;5033052;28;20026;-66
2023/08/13 11:54:11;;;;;;;1559.10;999.90;;;30.80;99.90;;;;;;5033006;28;20029;-68
2023/08/13 11:56:40;;;;;;;1544.50;999.90;;;30.70;99.90;;;;;;5032852;28;20060;-67
2023/08/13 11:59:07;;;;;;;1318.05;999.90;;;30.60;99.90;;;;;;5032773;28;20029;-68